• Join FlightAware (Why Join?)
  • Login
  • US Flag 
01:27AM EDT


 

Airport Tracker/Info


-or-


 

Live Flight TrackerFlight Track Log ✈ AKX1696 ✈ 28-Apr-2013 ✈ RJSF / FKS - RJOO / ITM

Flight Track Log - Related Links

Times and Time Zones

All times are in EDT time to prevent confusion due to time zone crossing. See the AKX1696 flight status page for this flight to view local times or setup timezone preferences in your user account.

Time Position Orientation Groundspeed Altitude Reporting Facility
EDT Latitude Longitude Course Direction KTS MPH feet Rate Location/Type
03:49AM 37.1085 140.1696 240° Southwest  Level Estimated
03:50AM 37.0687 140.0827 240° Southwest  Level Estimated
03:51AM 37.0289 139.9960 240° Southwest  Level Estimated
03:52AM 36.9890 139.9093 240° Southwest  Level Estimated
03:53AM 36.9491 139.8227 240° Southwest  Level Estimated
03:54AM 36.9090 139.7362 240° Southwest  Level Estimated
03:55AM 36.8690 139.6498 240° Southwest  Level Estimated
03:56AM 36.8288 139.5635 240° Southwest  Level Estimated
03:57AM 36.7886 139.4773 240° Southwest  Level Estimated
03:58AM 36.7483 139.3912 240° Southwest  Level Estimated
03:59AM 36.7080 139.3051 240° Southwest  Level Estimated
04:00AM 36.6676 139.2192 240° Southwest  Level Estimated
04:01AM 36.6272 139.1333 240° Southwest  Level Estimated
04:02AM 36.5866 139.0476 240° Southwest  Level Estimated
04:03AM 36.5461 138.9619 239° Southwest  Level Estimated
04:04AM 36.5054 138.8763 239° Southwest  Level Estimated
04:05AM 36.4647 138.7908 239° Southwest  Level Estimated
04:06AM 36.4240 138.7054 239° Southwest  Level Estimated
04:07AM 36.3831 138.6201 239° Southwest  Level Estimated
04:08AM 36.3423 138.5349 239° Southwest  Level Estimated
04:09AM 36.3013 138.4497 239° Southwest  Level Estimated
04:10AM 36.2603 138.3647 239° Southwest  Level Estimated
04:11AM 36.2192 138.2797 239° Southwest  Level Estimated
04:12AM 36.1781 138.1949 239° Southwest  Level Estimated
04:13AM 36.1370 138.1101 239° Southwest  Level Estimated
04:14AM 36.0957 138.0254 239° Southwest  Level Estimated
04:15AM 36.0544 137.9408 239° Southwest  Level Estimated
04:16AM 36.0131 137.8563 239° Southwest  Level Estimated
04:17AM 35.9716 137.7719 239° Southwest  Level Estimated
04:18AM 35.9301 137.6875 239° Southwest  Level Estimated
04:19AM 35.8886 137.6033 239° Southwest  Level Estimated
04:20AM 35.8470 137.5191 239° Southwest  Level Estimated
04:21AM 35.8054 137.4350 239° Southwest  Level Estimated
04:22AM 35.7636 137.3511 239° Southwest  Level Estimated
04:23AM 35.7219 137.2672 238° Southwest  Level Estimated
04:24AM 35.6800 137.1834 238° Southwest  Level Estimated
04:25AM 35.6381 137.0997 238° Southwest  Level Estimated
04:26AM 35.5962 137.0160 238° Southwest  Level Estimated
04:27AM 35.5542 136.9325 238° Southwest  Level Estimated
04:28AM 35.5121 136.8490 238° Southwest  Level Estimated
04:29AM 35.4700 136.7657 238° Southwest  Level Estimated
04:30AM 35.4278 136.6824 238° Southwest  Level Estimated
04:31AM 35.3856 136.5992 238° Southwest  Level Estimated
04:32AM 35.3433 136.5161 238° Southwest  Level Estimated
04:33AM 35.3009 136.4331 238° Southwest  Level Estimated
04:34AM 35.2585 136.3501 238° Southwest  Level Estimated
04:35AM 35.2161 136.2673 238° Southwest  Level Estimated
04:36AM 35.1735 136.1846 238° Southwest  Level Estimated
04:37AM 35.1310 136.1019 238° Southwest  Level Estimated
04:38AM 35.0883 136.0193 238° Southwest  Level Estimated
04:39AM 35.0457 135.9368 238° Southwest  Level Estimated
04:40AM 35.0029 135.8544 238° Southwest  Level Estimated
04:41AM 34.9601 135.7721 238° Southwest  Level Estimated
04:42AM 34.9173 135.6898 238° Southwest  Level Estimated
04:43AM 34.8744 135.6077 238° Southwest  Level Estimated
04:44AM 34.8314 135.5256 237° Southwest  Level Estimated
04:45AM 34.7884 135.4436 237° Southwest  Level Estimated
04:46AM 34.7855 135.4382 237° Southwest  Level Estimated
04:47AM 34.7855 135.4382 141° Southeast  Level Estimated
04:48AM 34.7855 135.4382 141° Southeast  Level Estimated
04:49AM 34.7855 135.4382 141° Southeast  Level Estimated
04:50AM 34.7855 135.4382 141° Southeast  Level Estimated
04:51AM 34.7855 135.4382 141° Southeast  Level Estimated
04:52AM 34.7855 135.4382 141° Southeast  Level Estimated
04:53AM 34.7855 135.4382 141° Southeast  Level Estimated
04:54AM 34.7855 135.4382 141° Southeast  Level Estimated
04:55AM 34.7855 135.4382 141° Southeast  Level Estimated